Terminal Aerodrome Forecast
Issued by NWS

Home | Current Version | Previous Version | Text Only | Print | Product List | Glossary On
Versions: 1 2 3 4 5 6 7 8 9 10 11 12 13 14 15 16 17 18
000
FTUS43 KGRB 301700
TAFRHI
TAF
KRHI 301735Z 3018/3118 28008KT P6SM VCSH OVC015
     FM302100 29009KT P6SM -SHRA BKN022 OVC050
     FM302300 31010G17KT 6SM -SHRA BKN020 OVC035
     FM310200 31014G23KT 6SM -SHSN BKN018 OVC030
     FM310600 33016G26KT 6SM -SN BKN015 OVC025 PROB30 3106/3112 2SM
      -SHSN
     FM311400 36014G25KT P6SM BKN035=

USA.gov is the U.S. government's official web portal to all federal, state and local government web resources and services.